createdAt,value
2023-02-14T00:00:52.249Z,16.77
2023-02-14T00:03:19.449Z,18.03
2023-02-14T00:05:47.037Z,17.63
2023-02-14T00:08:14.447Z,15.17
2023-02-14T00:10:41.666Z,16.77
2023-02-14T00:13:08.487Z,15.47
2023-02-14T00:15:35.349Z,15.77
2023-02-14T00:18:03.241Z,16.00
2023-02-14T00:20:30.197Z,14.80
2023-02-14T00:22:57.028Z,14.83
2023-02-14T00:25:23.914Z,14.23
2023-02-14T00:27:50.926Z,14.97
2023-02-14T00:30:17.851Z,15.20
2023-02-14T00:32:44.686Z,13.63
2023-02-14T00:35:11.888Z,13.53
2023-02-14T00:37:41.115Z,12.87
2023-02-14T00:40:08.239Z,14.17
2023-02-14T00:42:35.422Z,13.37
2023-02-14T00:45:02.214Z,14.33
2023-02-14T00:47:29.113Z,15.60
2023-02-14T00:49:56.008Z,13.90
2023-02-14T00:52:25.559Z,14.23
2023-02-14T00:54:52.450Z,14.30
2023-02-14T00:57:19.248Z,13.27
2023-02-14T00:59:46.182Z,14.10
2023-02-14T01:02:13.003Z,13.80
2023-02-14T01:04:39.911Z,13.20
2023-02-14T01:07:07.323Z,13.67
2023-02-14T01:09:35.162Z,14.27
2023-02-14T01:12:02.225Z,13.77
2023-02-14T01:14:29.172Z,13.57
2023-02-14T01:16:56.032Z,14.83
2023-02-14T01:19:24.461Z,13.77
2023-02-14T01:21:51.356Z,13.97
2023-02-14T01:24:18.158Z,13.87
2023-02-14T01:26:45.634Z,12.67
2023-02-14T01:29:12.431Z,14.73
2023-02-14T01:31:39.429Z,14.00
2023-02-14T01:34:06.495Z,13.60
2023-02-14T01:36:37.667Z,14.97
2023-02-14T01:39:07.109Z,14.33
2023-02-14T01:41:35.037Z,13.30
2023-02-14T01:44:07.422Z,13.23
2023-02-14T01:46:35.554Z,12.90
2023-02-14T01:49:02.381Z,13.30
2023-02-14T01:51:29.637Z,13.67
2023-02-14T01:53:57.092Z,13.63
2023-02-14T01:56:34.229Z,12.97
2023-02-14T01:59:02.325Z,13.70
2023-02-14T02:01:29.900Z,13.60
2023-02-14T02:03:59.195Z,12.07
2023-02-14T02:06:28.241Z,14.80
2023-02-14T02:09:14.456Z,13.43
2023-02-14T02:11:41.861Z,13.37
2023-02-14T02:14:16.195Z,13.37
2023-02-14T02:17:01.650Z,12.83
2023-02-14T02:19:43.869Z,11.77
2023-02-14T02:22:15.231Z,12.97
2023-02-14T02:24:57.818Z,13.50
2023-02-14T02:27:26.441Z,12.43
2023-02-14T02:30:02.637Z,12.00
2023-02-14T02:32:39.913Z,11.63
2023-02-14T02:35:15.937Z,13.37
2023-02-14T02:37:51.833Z,12.23
2023-02-14T02:40:27.255Z,12.83
2023-02-14T02:43:04.294Z,11.30
2023-02-14T02:46:01.468Z,11.73
2023-02-14T02:48:34.651Z,12.37
2023-02-14T02:51:23.070Z,11.20
2023-02-14T02:54:14.236Z,11.37
2023-02-14T02:56:47.032Z,10.90
2023-02-14T02:59:20.039Z,10.47
2023-02-14T03:02:06.047Z,11.23
2023-02-14T03:04:52.735Z,11.70
2023-02-14T03:07:40.631Z,10.90
2023-02-14T03:10:17.785Z,11.47
2023-02-14T03:12:54.736Z,11.00
2023-02-14T03:15:21.927Z,10.80
2023-02-14T03:17:51.630Z,11.60
2023-02-14T03:20:26.463Z,10.97
2023-02-14T03:22:59.238Z,10.03
2023-02-14T03:25:41.817Z,9.77
2023-02-14T03:28:13.425Z,10.97
2023-02-14T03:30:58.624Z,10.70
2023-02-14T03:33:44.005Z,10.83
2023-02-14T03:36:16.626Z,10.70
2023-02-14T03:38:49.855Z,10.30
2023-02-14T03:41:21.602Z,10.83
2023-02-14T03:43:51.690Z,10.90
2023-02-14T03:46:25.872Z,11.83
2023-02-14T03:48:54.306Z,10.23
2023-02-14T03:51:22.586Z,10.93
2023-02-14T03:53:52.262Z,9.43
2023-02-14T03:56:19.217Z,10.77
2023-02-14T03:58:48.347Z,10.97
2023-02-14T04:01:35.505Z,11.03
2023-02-14T04:04:03.251Z,11.47
2023-02-14T04:06:30.157Z,11.53
2023-02-14T04:08:57.033Z,10.27
2023-02-14T04:11:24.634Z,10.50
2023-02-14T04:13:51.727Z,10.17
2023-02-14T04:16:18.736Z,11.27
2023-02-14T04:19:04.093Z,10.07
2023-02-14T04:21:30.977Z,11.07
2023-02-14T04:23:57.735Z,9.87
2023-02-14T04:26:24.661Z,10.03
2023-02-14T04:28:51.459Z,9.03
2023-02-14T04:31:18.728Z,10.27
2023-02-14T04:33:48.228Z,10.17
2023-02-14T04:36:15.106Z,9.90
2023-02-14T04:38:42.291Z,9.53
2023-02-14T04:41:09.186Z,8.47
2023-02-14T04:43:36.019Z,9.80
2023-02-14T04:46:02.865Z,9.87
2023-02-14T04:48:29.692Z,9.03
2023-02-14T04:50:56.584Z,9.67
2023-02-14T04:53:23.409Z,10.00
2023-02-14T04:55:50.322Z,9.63
2023-02-14T04:58:17.598Z,9.23
2023-02-14T05:00:44.466Z,9.77
2023-02-14T05:03:11.426Z,9.53
2023-02-14T05:05:38.311Z,9.03
2023-02-14T05:08:05.184Z,9.53
2023-02-14T05:10:31.961Z,9.67
2023-02-14T05:12:58.904Z,10.17
2023-02-14T05:15:25.669Z,9.07
2023-02-14T05:17:52.511Z,9.80
2023-02-14T05:20:19.604Z,10.33
2023-02-14T05:22:46.390Z,9.63
2023-02-14T05:25:13.174Z,10.73
2023-02-14T05:27:40.071Z,9.93
2023-02-14T05:30:07.184Z,9.37
2023-02-14T05:32:34.137Z,10.23
2023-02-14T05:35:01.357Z,11.47
2023-02-14T05:37:28.335Z,10.73
2023-02-14T05:39:55.130Z,10.70
2023-02-14T05:42:22.068Z,11.03
2023-02-14T05:44:48.981Z,10.10
2023-02-14T05:47:15.846Z,11.00
2023-02-14T05:49:42.729Z,10.80
2023-02-14T05:52:10.118Z,10.27
2023-02-14T05:54:37.106Z,10.43
2023-02-14T05:57:03.951Z,10.63
2023-02-14T05:59:30.713Z,16.13
2023-02-14T06:01:57.723Z,15.10
2023-02-14T06:04:24.865Z,15.70
2023-02-14T06:06:51.723Z,14.87
2023-02-14T06:09:20.014Z,14.03
2023-02-14T06:11:46.786Z,14.73
2023-02-14T06:14:13.667Z,17.47
2023-02-14T06:16:40.782Z,16.40
2023-02-14T06:19:07.782Z,15.70
2023-02-14T06:21:34.989Z,13.27
2023-02-14T06:24:01.808Z,11.73
2023-02-14T06:26:28.626Z,10.87
2023-02-14T06:28:56.252Z,12.37
2023-02-14T06:31:23.425Z,13.00
2023-02-14T06:33:50.420Z,15.43
2023-02-14T06:36:17.215Z,17.53
2023-02-14T06:38:44.321Z,14.10
2023-02-14T06:41:11.579Z,14.20
2023-02-14T06:43:39.184Z,12.33
2023-02-14T06:46:06.078Z,11.77
2023-02-14T06:48:32.936Z,10.73
2023-02-14T06:51:00.050Z,12.00
2023-02-14T06:53:27.367Z,13.63
2023-02-14T06:55:54.250Z,13.20
2023-02-14T06:58:21.425Z,13.43
2023-02-14T07:00:48.446Z,12.73
2023-02-14T07:03:15.294Z,12.43
2023-02-14T07:05:42.801Z,12.83
2023-02-14T07:08:09.550Z,12.63
2023-02-14T07:10:36.436Z,12.63
2023-02-14T07:13:03.637Z,12.77
2023-02-14T07:15:30.506Z,13.63
2023-02-14T07:17:57.438Z,12.17
2023-02-14T07:20:24.362Z,11.80
2023-02-14T07:22:51.154Z,13.33
2023-02-14T07:25:18.037Z,12.83
2023-02-14T07:27:44.913Z,11.23
2023-02-14T07:30:12.181Z,11.60
2023-02-14T07:32:39.171Z,11.40
2023-02-14T07:35:06.273Z,11.10
2023-02-14T07:37:33.987Z,10.60
2023-02-14T07:40:01.296Z,8.83
2023-02-14T07:42:28.256Z,9.43
2023-02-14T07:44:55.171Z,8.60
2023-02-14T07:47:21.940Z,8.97
2023-02-14T07:49:48.737Z,8.97
2023-02-14T07:52:16.093Z,8.57
2023-02-14T07:54:43.256Z,9.43
2023-02-14T07:57:10.061Z,8.10
2023-02-14T07:59:37.000Z,9.13
2023-02-14T08:02:03.968Z,8.50
2023-02-14T08:04:33.536Z,8.10
2023-02-14T08:07:00.788Z,9.10
2023-02-14T08:09:27.579Z,9.17
2023-02-14T08:12:14.095Z,9.00
2023-02-14T08:14:41.337Z,8.83
2023-02-14T08:17:10.168Z,8.50
2023-02-14T08:19:37.186Z,8.83
2023-02-14T08:22:04.308Z,8.47
2023-02-14T08:24:31.234Z,9.37
2023-02-14T08:26:58.184Z,8.20
2023-02-14T08:29:25.123Z,8.47
2023-02-14T08:31:53.144Z,8.40
2023-02-14T08:34:20.119Z,8.13
2023-02-14T08:36:47.677Z,8.67
2023-02-14T08:39:14.443Z,9.63
2023-02-14T08:41:41.382Z,8.90
2023-02-14T08:44:08.156Z,9.13
2023-02-14T08:46:35.132Z,8.33
2023-02-14T08:49:02.049Z,7.87
2023-02-14T08:51:29.024Z,8.40
2023-02-14T08:53:56.301Z,10.20
2023-02-14T08:56:23.502Z,7.90
2023-02-14T08:58:54.673Z,9.27
2023-02-14T09:01:21.696Z,8.60
2023-02-14T09:03:48.681Z,9.77
2023-02-14T09:06:17.670Z,9.50
2023-02-14T09:08:45.973Z,9.07
2023-02-14T09:11:14.684Z,9.80
2023-02-14T09:13:45.145Z,10.60
2023-02-14T09:16:13.060Z,10.10
2023-02-14T09:18:40.186Z,8.23
2023-02-14T09:21:08.141Z,8.03
2023-02-14T09:23:35.156Z,9.50
2023-02-14T09:26:02.709Z,8.17
2023-02-14T09:28:29.936Z,7.87
2023-02-14T09:30:57.550Z,10.93
2023-02-14T09:33:27.120Z,8.60
2023-02-14T09:36:12.490Z,9.43
2023-02-14T09:38:39.837Z,9.90
2023-02-14T09:41:07.630Z,7.77
2023-02-14T09:43:41.893Z,8.87
2023-02-14T09:46:11.851Z,7.90
2023-02-14T09:48:41.982Z,7.50
2023-02-14T09:51:13.158Z,8.23
2023-02-14T09:54:02.083Z,8.20
2023-02-14T09:56:51.902Z,7.50
2023-02-14T09:59:21.779Z,8.13
2023-02-14T10:02:09.047Z,8.30
2023-02-14T10:04:40.963Z,8.20
2023-02-14T10:07:15.415Z,8.10
2023-02-14T10:09:50.126Z,8.27
2023-02-14T10:12:22.911Z,8.57
2023-02-14T10:14:50.563Z,8.43
2023-02-14T10:17:19.815Z,6.93
2023-02-14T10:20:07.483Z,8.00
2023-02-14T10:22:44.108Z,7.70
2023-02-14T10:25:16.427Z,9.43
2023-02-14T10:27:46.273Z,8.53
2023-02-14T10:30:15.030Z,7.87
2023-02-14T10:33:00.767Z,9.17
2023-02-14T10:35:39.994Z,6.40
2023-02-14T10:38:17.661Z,8.30
2023-02-14T10:40:48.704Z,9.10
2023-02-14T10:43:30.837Z,8.83
2023-02-14T10:46:03.829Z,9.37
2023-02-14T10:48:31.169Z,10.57
2023-02-14T10:51:03.782Z,9.33
2023-02-14T10:53:42.913Z,8.50
2023-02-14T10:56:18.761Z,8.40
2023-02-14T10:58:46.679Z,9.10
2023-02-14T11:01:14.430Z,8.97
2023-02-14T11:03:51.765Z,7.97
2023-02-14T11:06:20.175Z,8.03
2023-02-14T11:08:46.960Z,8.97
2023-02-14T11:11:14.188Z,9.47
2023-02-14T11:13:41.566Z,9.40
2023-02-14T11:16:12.942Z,5.83
2023-02-14T11:18:41.155Z,5.80
2023-02-14T11:21:12.658Z,5.47
2023-02-14T11:23:43.855Z,5.93
2023-02-14T11:26:30.929Z,6.60
2023-02-14T11:29:02.455Z,8.00
2023-02-14T11:31:34.211Z,5.47
2023-02-14T11:34:03.701Z,3.77
2023-02-14T11:36:32.001Z,5.20
2023-02-14T11:39:17.630Z,5.17
2023-02-14T11:41:49.143Z,6.93
2023-02-14T11:44:22.673Z,3.63
2023-02-14T11:46:53.412Z,3.33
2023-02-14T11:49:28.614Z,4.13
2023-02-14T11:51:56.200Z,4.83
2023-02-14T11:54:29.197Z,4.87
2023-02-14T11:57:18.976Z,5.30
2023-02-14T11:59:47.913Z,5.13
2023-02-14T12:02:32.934Z,5.43
2023-02-14T12:05:18.554Z,4.90
2023-02-14T12:07:48.911Z,5.73
2023-02-14T12:10:15.877Z,6.10
2023-02-14T12:12:48.799Z,5.40
2023-02-14T12:15:24.697Z,5.83
2023-02-14T12:18:26.754Z,7.60
2023-02-14T12:21:13.154Z,3.43
2023-02-14T12:23:51.005Z,4.23
2023-02-14T12:26:40.883Z,4.23
2023-02-14T12:29:14.437Z,4.23
2023-02-14T12:31:42.180Z,5.83
2023-02-14T12:34:10.761Z,5.43
2023-02-14T12:36:58.266Z,4.43
2023-02-14T12:39:37.575Z,4.70
2023-02-14T12:42:04.573Z,5.00
2023-02-14T12:44:34.323Z,4.23
2023-02-14T12:47:04.380Z,4.30
2023-02-14T12:49:31.194Z,4.80
2023-02-14T12:52:14.749Z,4.43
2023-02-14T12:54:41.570Z,5.20
2023-02-14T12:57:14.611Z,5.33
2023-02-14T12:59:53.753Z,7.37
2023-02-14T13:02:39.459Z,5.37
2023-02-14T13:05:09.253Z,5.60
2023-02-14T13:07:38.278Z,6.43
2023-02-14T13:10:13.530Z,5.50
2023-02-14T13:13:02.546Z,4.60
2023-02-14T13:16:01.603Z,5.47
2023-02-14T13:18:31.995Z,5.60
2023-02-14T13:21:01.855Z,5.43
2023-02-14T13:23:42.285Z,6.07
2023-02-14T13:26:09.069Z,5.80
2023-02-14T13:28:37.678Z,5.73
2023-02-14T13:31:05.198Z,5.53
2023-02-14T13:33:41.697Z,5.73
2023-02-14T13:36:10.769Z,5.70
2023-02-14T13:38:42.654Z,4.77
2023-02-14T13:41:09.700Z,5.10
2023-02-14T13:43:45.369Z,5.13
2023-02-14T13:46:12.519Z,4.67
2023-02-14T13:48:40.265Z,5.10
2023-02-14T13:51:08.454Z,5.30
2023-02-14T13:53:40.336Z,5.07
2023-02-14T13:56:13.360Z,4.70
2023-02-14T13:59:06.398Z,5.43
2023-02-14T14:01:51.853Z,5.20
2023-02-14T14:04:28.309Z,4.43
2023-02-14T14:07:01.473Z,4.63
2023-02-14T14:09:43.482Z,5.40
2023-02-14T14:12:30.657Z,5.50
2023-02-14T14:15:06.537Z,4.90
2023-02-14T14:17:35.274Z,4.50
2023-02-14T14:20:04.479Z,4.77
2023-02-14T14:22:31.456Z,5.47
2023-02-14T14:25:02.725Z,4.83
2023-02-14T14:27:32.344Z,5.57
2023-02-14T14:29:59.224Z,6.43
2023-02-14T14:32:26.491Z,6.50
2023-02-14T14:34:55.101Z,5.37
2023-02-14T14:37:32.611Z,5.87
2023-02-14T14:40:01.548Z,5.93
2023-02-14T14:42:30.726Z,5.37
2023-02-14T14:44:59.954Z,5.50
2023-02-14T14:47:28.562Z,5.47
2023-02-14T14:49:59.300Z,5.87
2023-02-14T14:52:34.761Z,6.27
2023-02-14T14:55:03.175Z,6.77
2023-02-14T14:57:30.203Z,9.00
2023-02-14T15:00:23.455Z,7.43
2023-02-14T15:03:09.192Z,14.83
2023-02-14T15:05:36.162Z,7.00
2023-02-14T15:08:21.868Z,6.30
2023-02-14T15:10:56.794Z,29.80
2023-02-14T15:13:48.232Z,16.03
2023-02-14T15:16:21.216Z,32.07
2023-02-14T15:18:49.516Z,9.03
2023-02-14T15:21:16.979Z,4.60
2023-02-14T15:23:46.769Z,6.17
2023-02-14T15:26:24.410Z,5.17
2023-02-14T15:28:55.432Z,8.97
2023-02-14T15:31:22.894Z,11.40
2023-02-14T15:33:49.891Z,9.53
2023-02-14T15:36:19.322Z,7.97
2023-02-14T15:38:47.630Z,6.20
2023-02-14T15:41:16.061Z,7.07
2023-02-14T15:43:43.420Z,6.50
2023-02-14T15:46:16.371Z,20.40
2023-02-14T15:48:44.379Z,28.43
2023-02-14T15:51:16.303Z,17.47
2023-02-14T15:53:50.381Z,9.23
2023-02-14T15:56:20.702Z,10.67
2023-02-14T15:58:47.996Z,7.70
2023-02-14T16:01:15.065Z,8.30
2023-02-14T16:03:49.437Z,7.80
2023-02-14T16:06:29.460Z,14.47
2023-02-14T16:08:56.752Z,57.80
2023-02-14T16:11:41.521Z,28.50
2023-02-14T16:14:27.047Z,15.57
2023-02-14T16:17:01.641Z,13.83
2023-02-14T16:19:36.807Z,9.67
2023-02-14T16:22:04.085Z,9.37
2023-02-14T16:24:31.236Z,26.50
2023-02-14T16:26:58.389Z,38.20
2023-02-14T16:29:25.237Z,38.67
2023-02-14T16:32:15.147Z,60.30
2023-02-14T16:34:41.477Z,37.57
2023-02-14T16:37:09.743Z,25.77
2023-02-14T16:39:39.111Z,17.73
2023-02-14T16:42:05.988Z,13.80
2023-02-14T16:44:33.567Z,12.33
2023-02-14T16:47:01.922Z,11.97
2023-02-14T16:49:28.791Z,17.33
2023-02-14T16:51:55.625Z,14.53
2023-02-14T16:54:24.119Z,19.10
2023-02-14T16:56:51.867Z,13.30
2023-02-14T16:59:19.503Z,29.20
2023-02-14T17:01:46.739Z,30.60
2023-02-14T17:04:13.856Z,39.07
2023-02-14T17:06:43.230Z,34.60
2023-02-14T17:09:11.561Z,28.83
2023-02-14T17:11:40.199Z,20.83
2023-02-14T17:14:07.518Z,13.87
2023-02-14T17:16:34.579Z,13.23
2023-02-14T17:19:02.225Z,15.57
2023-02-14T17:21:29.157Z,10.43
2023-02-14T17:23:57.018Z,9.87
2023-02-14T17:26:24.063Z,9.50
2023-02-14T17:28:51.473Z,15.27
2023-02-14T17:31:19.073Z,17.73
2023-02-14T17:33:46.413Z,25.73
2023-02-14T17:36:14.766Z,16.60
2023-02-14T17:38:44.126Z,22.83
2023-02-14T17:41:15.973Z,16.83
2023-02-14T17:43:44.074Z,17.60
2023-02-14T17:46:11.657Z,21.50
2023-02-14T17:48:38.523Z,32.10
2023-02-14T17:51:07.023Z,24.27
2023-02-14T17:53:34.953Z,27.63
2023-02-14T17:56:10.236Z,29.57
2023-02-14T17:58:37.059Z,36.83
2023-02-14T18:01:06.112Z,55.33
2023-02-14T18:03:34.107Z,48.73
2023-02-14T18:06:01.895Z,48.83
2023-02-14T18:08:29.705Z,17.70
2023-02-14T18:10:56.956Z,14.80
2023-02-14T18:13:25.106Z,17.33
2023-02-14T18:15:54.940Z,14.60
2023-02-14T18:18:21.775Z,16.33
2023-02-14T18:20:53.122Z,27.30
2023-02-14T18:23:20.950Z,32.63
2023-02-14T18:25:54.310Z,25.77
2023-02-14T18:28:23.268Z,30.77
2023-02-14T18:30:50.106Z,35.27
2023-02-14T18:33:18.159Z,22.83
2023-02-14T18:35:45.580Z,22.13
2023-02-14T18:38:13.030Z,24.43
2023-02-14T18:40:40.483Z,38.87
2023-02-14T18:43:07.602Z,24.17
2023-02-14T18:45:38.855Z,28.57
2023-02-14T18:48:05.836Z,16.83
2023-02-14T18:50:33.725Z,22.73
2023-02-14T18:53:00.785Z,20.90
2023-02-14T18:55:29.073Z,21.07
2023-02-14T18:57:56.384Z,22.10
2023-02-14T19:00:23.575Z,23.40
2023-02-14T19:02:50.510Z,25.40
2023-02-14T19:05:17.604Z,24.33
2023-02-14T19:07:44.816Z,28.30
2023-02-14T19:10:12.790Z,26.73
2023-02-14T19:12:40.084Z,28.40
2023-02-14T19:15:08.115Z,26.00
2023-02-14T19:17:35.286Z,27.50
2023-02-14T19:20:08.545Z,24.13
2023-02-14T19:22:39.454Z,27.63
2023-02-14T19:25:06.968Z,27.80
2023-02-14T19:27:34.476Z,25.80
2023-02-14T19:30:01.895Z,26.47
2023-02-14T19:32:29.126Z,25.73
2023-02-14T19:34:56.015Z,27.37
2023-02-14T19:37:22.812Z,28.33
2023-02-14T19:39:49.761Z,24.70
2023-02-14T19:42:17.039Z,26.37
2023-02-14T19:44:45.558Z,23.93
2023-02-14T19:47:28.786Z,24.17
2023-02-14T19:49:59.811Z,27.07
2023-02-14T19:52:28.314Z,25.77
2023-02-14T19:54:57.884Z,23.97
2023-02-14T19:57:25.204Z,26.67
2023-02-14T19:59:52.034Z,22.77
2023-02-14T20:02:20.125Z,23.40
2023-02-14T20:04:47.107Z,20.97
2023-02-14T20:07:13.964Z,21.07
2023-02-14T20:09:40.758Z,21.07
2023-02-14T20:12:07.720Z,20.47
2023-02-14T20:14:49.818Z,19.63
2023-02-14T20:17:18.359Z,17.50
2023-02-14T20:19:45.289Z,17.83
2023-02-14T20:22:12.225Z,17.30
2023-02-14T20:24:39.057Z,17.43
2023-02-14T20:27:06.057Z,15.17
2023-02-14T20:29:33.337Z,16.87
2023-02-14T20:32:03.526Z,16.50
2023-02-14T20:34:30.729Z,18.77
2023-02-14T20:36:59.355Z,11.73
2023-02-14T20:39:30.777Z,9.47
2023-02-14T20:41:57.878Z,11.03
2023-02-14T20:44:24.715Z,10.30
2023-02-14T20:46:52.977Z,9.93
2023-02-14T20:49:21.246Z,13.47
2023-02-14T20:51:49.838Z,13.90
2023-02-14T20:54:17.350Z,16.07
2023-02-14T20:56:44.285Z,15.47
2023-02-14T20:59:11.520Z,16.03
2023-02-14T21:01:38.770Z,15.77
2023-02-14T21:04:06.116Z,22.73
2023-02-14T21:06:35.180Z,18.17
2023-02-14T21:09:03.400Z,19.60
2023-02-14T21:11:30.193Z,17.40
2023-02-14T21:13:59.646Z,17.57
2023-02-14T21:16:27.456Z,19.63
2023-02-14T21:18:59.353Z,18.57
2023-02-14T21:21:33.954Z,16.33
2023-02-14T21:24:01.612Z,15.00
2023-02-14T21:26:29.309Z,13.50
2023-02-14T21:28:56.640Z,11.70
2023-02-14T21:31:26.005Z,12.70
2023-02-14T21:33:54.319Z,15.47
2023-02-14T21:36:22.473Z,18.37
2023-02-14T21:38:50.489Z,18.73
2023-02-14T21:41:21.939Z,16.27
2023-02-14T21:43:49.787Z,16.00
2023-02-14T21:46:17.777Z,13.83
2023-02-14T21:49:03.617Z,14.70
2023-02-14T21:51:31.175Z,14.30
2023-02-14T21:54:00.163Z,12.60
2023-02-14T21:56:27.534Z,13.77
2023-02-14T21:58:55.534Z,15.77
2023-02-14T22:01:23.933Z,18.80
2023-02-14T22:03:50.841Z,15.83
2023-02-14T22:06:18.462Z,14.00
2023-02-14T22:08:45.303Z,14.83
2023-02-14T22:11:13.331Z,13.30
2023-02-14T22:13:40.418Z,13.47
2023-02-14T22:16:08.620Z,13.97
2023-02-14T22:18:35.486Z,13.33
2023-02-14T22:21:07.043Z,13.07
2023-02-14T22:23:34.519Z,12.10
2023-02-14T22:26:12.547Z,13.23
2023-02-14T22:28:39.907Z,14.53
2023-02-14T22:31:06.808Z,10.47
2023-02-14T22:33:33.834Z,9.63
2023-02-14T22:36:01.317Z,9.77
2023-02-14T22:38:28.716Z,9.67
2023-02-14T22:40:55.571Z,10.90
2023-02-14T22:43:22.798Z,11.30
2023-02-14T22:45:49.946Z,8.60
2023-02-14T22:48:18.026Z,9.47
2023-02-14T22:50:44.980Z,11.97
2023-02-14T22:53:11.938Z,8.77
2023-02-14T22:55:40.022Z,9.90
2023-02-14T22:58:06.953Z,8.50
2023-02-14T23:00:33.728Z,10.07
2023-02-14T23:03:00.664Z,10.27
2023-02-14T23:05:27.512Z,11.60
2023-02-14T23:07:54.290Z,11.53
2023-02-14T23:10:21.316Z,12.97
2023-02-14T23:13:06.697Z,10.57
2023-02-14T23:15:51.946Z,10.00
2023-02-14T23:18:37.683Z,10.10
2023-02-14T23:21:27.596Z,10.47
2023-02-14T23:23:55.211Z,10.27
2023-02-14T23:26:22.163Z,10.23
2023-02-14T23:28:49.994Z,9.93
2023-02-14T23:31:17.389Z,10.80
2023-02-14T23:33:44.538Z,10.20
2023-02-14T23:36:11.939Z,9.80
2023-02-14T23:38:38.766Z,10.67
2023-02-14T23:41:30.327Z,10.60
2023-02-14T23:43:57.502Z,9.50
2023-02-14T23:46:25.324Z,11.77
2023-02-14T23:48:52.223Z,12.10
2023-02-14T23:51:19.883Z,10.40
2023-02-14T23:53:47.229Z,11.90
2023-02-14T23:56:14.162Z,11.37
2023-02-14T23:58:43.113Z,11.87
